Time;durP1;ratioP1;P1;durP2;ratioP2;P2;SDS_P1;SDS_P2;PMS_P1;PMS_P2;Temp;Humidity;BMP_temperature;BMP_pressure;BME280_temperature;BME280_humidity;BME280_pressure;Samples;Min_cycle;Max_cycle;Signal;HPM_P1;HPM_P2
2022/09/14 00:01:22;;;;;;;8.15;1.58;;;16.20;99.90;;;;;;5109640;28;20482;-63
2022/09/14 00:03:51;;;;;;;6.78;1.88;;;16.20;99.90;;;;;;5092375;28;20387;-63
2022/09/14 00:06:17;;;;;;;5.03;1.60;;;16.20;99.90;;;;;;5109291;28;20392;-63
2022/09/14 00:08:43;;;;;;;7.35;1.80;;;16.10;99.90;;;;;;5091499;28;20400;-63
2022/09/14 00:11:13;;;;;;;4.85;1.45;;;16.10;99.90;;;;;;5109903;28;20587;-63
2022/09/14 00:13:41;;;;;;;5.43;1.60;;;16.10;99.90;;;;;;5093160;28;20445;-63
2022/09/14 00:16:15;;;;;;;5.50;1.75;;;16.10;99.90;;;;;;5093073;28;20497;-63
2022/09/14 00:18:41;;;;;;;7.28;1.67;;;16.10;99.90;;;;;;5111067;28;20402;-63
2022/09/14 00:21:08;;;;;;;8.82;1.60;;;16.00;99.90;;;;;;5092461;28;20663;-63
2022/09/14 00:23:36;;;;;;;8.50;1.70;;;16.00;99.90;;;;;;5109995;28;20428;-63
2022/09/14 00:26:08;;;;;;;4.28;1.50;;;16.10;99.90;;;;;;5091423;28;20467;-63
2022/09/14 00:28:38;;;;;;;6.70;1.80;;;16.00;99.90;;;;;;5095520;28;20386;-63
2022/09/14 00:31:06;;;;;;;5.88;1.40;;;16.00;99.90;;;;;;5097049;28;20385;-63
2022/09/14 00:33:33;;;;;;;6.43;1.63;;;16.10;99.90;;;;;;5096835;28;20361;-63
2022/09/14 00:36:13;;;;;;;7.28;1.60;;;16.10;99.90;;;;;;5098203;28;20730;-63
2022/09/14 00:38:40;;;;;;;4.97;1.55;;;16.10;99.90;;;;;;5098243;28;20412;-63
2022/09/14 00:41:10;;;;;;;5.45;1.50;;;16.00;99.90;;;;;;5098022;28;20395;-63
2022/09/14 00:43:59;;;;;;;5.85;1.40;;;16.00;99.90;;;;;;5113825;28;20480;-63
2022/09/14 00:46:27;;;;;;;6.60;1.95;;;16.10;99.90;;;;;;5095564;28;20472;-63
2022/09/14 00:48:54;;;;;;;6.15;1.77;;;16.00;99.90;;;;;;5095589;28;20378;-62
2022/09/14 00:51:20;;;;;;;4.65;1.30;;;15.90;99.90;;;;;;5098428;28;20377;-63
2022/09/14 00:53:47;;;;;;;5.83;1.87;;;15.90;99.90;;;;;;5098298;28;20368;-63
2022/09/14 00:56:13;;;;;;;4.57;1.20;;;15.90;99.90;;;;;;5097601;28;20468;-63
2022/09/14 00:58:40;;;;;;;5.82;1.63;;;15.90;99.90;;;;;;5099329;28;20380;-63
2022/09/14 01:01:08;;;;;;;4.95;1.45;;;15.90;99.90;;;;;;5098106;28;20392;-64
2022/09/14 01:03:33;;;;;;;7.20;2.00;;;15.90;99.90;;;;;;5098542;28;20384;-63
2022/09/14 01:06:15;;;;;;;9.93;2.00;;;15.90;99.90;;;;;;5097999;28;20418;-63
2022/09/14 01:09:25;;;;;;;5.40;1.70;;;15.90;99.90;;;;;;5097779;28;20392;-63
2022/09/14 01:12:26;;;;;;;5.90;1.40;;;15.90;99.90;;;;;;5096273;28;20445;-63
2022/09/14 01:15:24;;;;;;;6.83;1.53;;;16.00;99.90;;;;;;5095599;28;20396;-63
2022/09/14 01:18:06;;;;;;;4.40;1.35;;;15.90;99.90;;;;;;5111805;28;20388;-63
2022/09/14 01:20:38;;;;;;;6.38;1.60;;;15.90;99.90;;;;;;5112992;28;20376;-63
2022/09/14 01:23:28;;;;;;;5.57;1.73;;;15.90;99.90;;;;;;5094219;28;20381;-64
2022/09/14 01:26:12;;;;;;;5.03;1.70;;;15.90;99.90;;;;;;5093727;28;20403;-63
2022/09/14 01:28:51;;;;;;;7.72;2.00;;;15.90;99.90;;;;;;5093722;28;20854;-64
2022/09/14 01:31:41;;;;;;;5.72;1.52;;;15.80;99.90;;;;;;5093411;28;20381;-63
2022/09/14 01:34:22;;;;;;;9.32;1.80;;;15.80;99.90;;;;;;5095229;28;20876;-64
2022/09/14 01:36:53;;;;;;;4.75;1.55;;;15.70;99.90;;;;;;5096905;28;20395;-64
2022/09/14 01:39:20;;;;;;;7.35;1.70;;;15.50;99.90;;;;;;5096320;28;20605;-64
2022/09/14 01:41:48;;;;;;;13.60;12.40;;;15.50;99.90;;;;;;5114796;28;20425;-64
2022/09/14 01:44:20;;;;;;;4.95;1.60;;;15.50;99.90;;;;;;5096116;28;20500;-64
2022/09/14 01:46:58;;;;;;;3.95;1.35;;;15.60;99.90;;;;;;5094094;28;20657;-64
2022/09/14 01:49:31;;;;;;;7.03;1.65;;;15.60;99.90;;;;;;5092830;28;20629;-64
2022/09/14 01:52:00;;;;;;;6.73;1.70;;;15.60;99.90;;;;;;5111209;28;20461;-64
2022/09/14 01:54:34;;;;;;;6.45;1.92;;;15.60;99.90;;;;;;5093162;28;20399;-64
2022/09/14 01:57:09;;;;;;;6.15;1.83;;;15.60;99.90;;;;;;5111253;28;20457;-64
2022/09/14 01:59:44;;;;;;;8.18;1.88;;;15.50;99.90;;;;;;5094021;28;20674;-64
2022/09/14 02:02:19;;;;;;;18.17;15.93;;;15.50;99.90;;;;;;5095906;28;20678;-64
2022/09/14 02:05:13;;;;;;;5.97;1.58;;;15.40;99.90;;;;;;5093731;28;20438;-64
2022/09/14 02:07:39;;;;;;;6.57;1.75;;;15.40;99.90;;;;;;5092050;28;20377;-63
2022/09/14 02:10:08;;;;;;;4.57;1.55;;;15.50;99.90;;;;;;5091025;28;20382;-64
2022/09/14 02:12:35;;;;;;;6.05;1.77;;;15.40;99.90;;;;;;5089795;28;20381;-64
2022/09/14 02:15:00;;;;;;;4.77;1.70;;;15.50;99.90;;;;;;5090802;28;20378;-64
2022/09/14 02:17:28;;;;;;;4.97;1.70;;;15.50;99.90;;;;;;5091872;28;20773;-64
2022/09/14 02:19:59;;;;;;;4.40;1.40;;;15.40;99.90;;;;;;5091602;28;20754;-64
2022/09/14 02:22:26;;;;;;;5.25;1.80;;;15.40;99.90;;;;;;5090766;28;20662;-64
2022/09/14 02:24:52;;;;;;;6.05;1.65;;;15.40;99.90;;;;;;5090698;28;20402;-64
2022/09/14 02:27:18;;;;;;;5.28;1.90;;;15.40;99.90;;;;;;5092295;28;20374;-64
2022/09/14 02:29:44;;;;;;;6.97;1.87;;;15.40;99.90;;;;;;5093634;28;20401;-65
2022/09/14 02:32:38;;;;;;;4.97;1.40;;;15.20;99.90;;;;;;5093474;28;20382;-64
2022/09/14 02:35:21;;;;;;;5.35;1.70;;;15.20;99.90;;;;;;5094733;28;20455;-64
2022/09/14 02:38:19;;;;;;;8.90;2.30;;;15.20;99.90;;;;;;5093795;28;20473;-64
2022/09/14 02:41:03;;;;;;;4.50;1.50;;;15.20;99.90;;;;;;5094890;28;20392;-64
2022/09/14 02:44:00;;;;;;;8.57;2.37;;;15.20;99.90;;;;;;5092929;28;20414;-64
2022/09/14 02:46:50;;;;;;;6.55;1.70;;;15.20;99.90;;;;;;5095016;28;20470;-64
2022/09/14 02:49:43;;;;;;;5.93;1.58;;;15.10;99.90;;;;;;5090101;28;20443;-64
2022/09/14 02:52:18;;;;;;;7.93;1.92;;;15.10;99.90;;;;;;5090218;28;20417;-64
2022/09/14 02:55:01;;;;;;;10.32;2.25;;;15.20;99.90;;;;;;5095250;28;20378;-64
2022/09/14 02:57:26;;;;;;;6.68;1.92;;;15.10;99.90;;;;;;5093772;28;20374;-65
2022/09/14 02:59:53;;;;;;;5.93;1.50;;;15.10;99.90;;;;;;5093342;28;20409;-64
2022/09/14 03:02:18;;;;;;;7.50;1.83;;;15.10;99.90;;;;;;5093756;28;20393;-64
2022/09/14 03:04:44;;;;;;;8.10;1.98;;;15.20;99.90;;;;;;5099415;28;20408;-64
2022/09/14 03:07:10;;;;;;;6.50;1.85;;;15.20;99.90;;;;;;5094016;28;20480;-64
2022/09/14 03:09:36;;;;;;;4.67;1.50;;;15.20;99.90;;;;;;5111141;28;20407;-64
2022/09/14 03:12:01;;;;;;;8.27;2.10;;;15.20;99.90;;;;;;5092430;28;20364;-64
2022/09/14 03:14:27;;;;;;;7.32;1.70;;;15.20;99.90;;;;;;5090834;28;20461;-63
2022/09/14 03:16:52;;;;;;;5.90;2.00;;;15.10;99.90;;;;;;5110785;28;20419;-64
2022/09/14 03:19:18;;;;;;;5.13;1.97;;;15.00;99.90;;;;;;5111077;28;20488;-64
2022/09/14 03:21:44;;;;;;;7.15;1.85;;;15.00;99.90;;;;;;5095299;28;20380;-63
2022/09/14 03:24:09;;;;;;;7.13;1.80;;;15.10;99.90;;;;;;5096188;28;20515;-63
2022/09/14 03:26:37;;;;;;;7.37;2.10;;;15.00;99.90;;;;;;5113815;28;20752;-64
2022/09/14 03:29:04;;;;;;;6.60;1.90;;;14.90;99.90;;;;;;5096308;28;20396;-64
2022/09/14 03:31:30;;;;;;;7.80;1.98;;;14.90;99.90;;;;;;5113497;28;20384;-64
2022/09/14 03:33:57;;;;;;;5.68;1.60;;;14.90;99.90;;;;;;5094545;28;20414;-64
2022/09/14 03:36:25;;;;;;;7.93;1.88;;;15.00;99.90;;;;;;5093511;28;20376;-64
2022/09/14 03:38:52;;;;;;;5.38;1.83;;;15.00;99.90;;;;;;5111143;28;20383;-64
2022/09/14 03:41:19;;;;;;;7.10;2.00;;;15.00;99.90;;;;;;5095169;28;20389;-64
2022/09/14 03:43:45;;;;;;;5.97;1.80;;;15.00;99.90;;;;;;5095141;28;20423;-64
2022/09/14 03:46:14;;;;;;;7.67;1.90;;;15.00;99.90;;;;;;5112237;28;20408;-64
2022/09/14 03:48:40;;;;;;;7.60;2.03;;;15.00;99.90;;;;;;5095507;28;20703;-64
2022/09/14 03:51:08;;;;;;;8.43;1.90;;;14.90;99.90;;;;;;5095037;28;20434;-64
2022/09/14 03:53:34;;;;;;;4.80;1.65;;;14.90;99.90;;;;;;5092772;28;20779;-64
2022/09/14 03:55:59;;;;;;;6.55;1.98;;;14.90;99.90;;;;;;5094679;28;20815;-64
2022/09/14 03:58:25;;;;;;;6.70;1.90;;;14.80;99.90;;;;;;5097712;28;20396;-64
2022/09/14 04:00:51;;;;;;;6.30;1.60;;;14.80;99.90;;;;;;5097504;28;20396;-64
2022/09/14 04:03:17;;;;;;;6.33;1.80;;;14.80;99.90;;;;;;5118719;28;20388;-64
2022/09/14 04:05:52;;;;;;;5.23;1.70;;;14.80;99.90;;;;;;5102312;28;20420;-64
2022/09/14 04:08:17;;;;;;;4.25;1.40;;;14.80;99.90;;;;;;5100424;28;20376;-64
2022/09/14 04:10:43;;;;;;;5.97;1.60;;;14.80;99.90;;;;;;5100398;28;20395;-64
2022/09/14 04:13:08;;;;;;;4.03;1.80;;;14.90;99.90;;;;;;5100493;28;20505;-64
2022/09/14 04:15:34;;;;;;;4.53;1.53;;;14.90;99.90;;;;;;5100761;28;20395;-64
2022/09/14 04:18:03;;;;;;;5.35;1.83;;;14.90;99.90;;;;;;5098871;28;20971;-64
2022/09/14 04:20:28;;;;;;;5.25;1.50;;;14.80;99.90;;;;;;5098468;28;20395;-64
2022/09/14 04:22:54;;;;;;;3.57;1.40;;;14.70;99.90;;;;;;5098810;28;20384;-64
2022/09/14 04:25:22;;;;;;;8.07;1.80;;;14.70;99.90;;;;;;5099065;28;20404;-64
2022/09/14 04:27:48;;;;;;;8.27;2.28;;;14.70;99.90;;;;;;5098618;28;21002;-64
2022/09/14 04:30:14;;;;;;;8.82;2.13;;;14.60;99.90;;;;;;5098822;28;20377;-64
2022/09/14 04:32:39;;;;;;;4.07;1.92;;;14.50;99.90;;;;;;5097867;28;20861;-64
2022/09/14 04:35:08;;;;;;;8.38;2.40;;;14.40;99.90;;;;;;5097309;28;20395;-63
2022/09/14 04:37:34;;;;;;;8.00;2.28;;;14.30;99.90;;;;;;5098388;28;20471;-64
2022/09/14 04:40:00;;;;;;;5.97;2.00;;;14.20;99.90;;;;;;5098530;28;20978;-64
2022/09/14 04:42:25;;;;;;;6.13;2.30;;;14.30;99.90;;;;;;5117552;28;20384;-63
2022/09/14 04:44:51;;;;;;;7.75;1.98;;;14.30;99.90;;;;;;5115002;28;20482;-63
2022/09/14 04:47:16;;;;;;;5.50;1.83;;;14.40;99.90;;;;;;5099021;28;20388;-64
2022/09/14 04:49:42;;;;;;;7.03;2.40;;;14.40;99.90;;;;;;5098640;28;20838;-63
2022/09/14 04:52:07;;;;;;;7.97;2.20;;;14.30;99.90;;;;;;5096786;28;20399;-64
2022/09/14 04:54:33;;;;;;;7.07;2.50;;;14.30;99.90;;;;;;5112980;28;20394;-64
2022/09/14 04:56:59;;;;;;;7.47;2.43;;;14.30;99.90;;;;;;5094871;28;20395;-64
2022/09/14 04:59:24;;;;;;;8.13;2.40;;;14.30;99.90;;;;;;5092189;28;21039;-64
2022/09/14 05:01:50;;;;;;;6.47;2.35;;;14.40;99.90;;;;;;5111336;28;20394;-63
2022/09/14 05:04:16;;;;;;;6.40;2.00;;;14.30;99.90;;;;;;5091917;28;20700;-64
2022/09/14 05:06:43;;;;;;;7.43;2.17;;;14.40;99.90;;;;;;5111645;28;20467;-64
2022/09/14 05:09:14;;;;;;;7.35;2.33;;;14.50;99.90;;;;;;5113508;28;20376;-64
2022/09/14 05:11:40;;;;;;;6.68;2.33;;;14.50;99.90;;;;;;5096097;28;20379;-64
2022/09/14 05:14:06;;;;;;;4.75;1.80;;;14.50;99.90;;;;;;5093476;28;20400;-64
2022/09/14 05:16:34;;;;;;;8.57;2.47;;;14.50;99.90;;;;;;5094147;28;20395;-64
2022/09/14 05:19:02;;;;;;;9.98;3.15;;;14.60;99.90;;;;;;5111779;28;20759;-64
2022/09/14 05:21:30;;;;;;;7.68;2.25;;;14.70;99.90;;;;;;5094452;28;20452;-64
2022/09/14 05:24:02;;;;;;;7.50;2.50;;;14.70;99.90;;;;;;5095689;28;20915;-64
2022/09/14 05:26:31;;;;;;;7.68;2.28;;;14.70;99.90;;;;;;5095647;28;20848;-64
2022/09/14 05:28:58;;;;;;;7.00;2.47;;;14.80;99.90;;;;;;5095343;28;20400;-64
2022/09/14 05:31:25;;;;;;;6.97;2.13;;;14.70;99.90;;;;;;5093094;28;20681;-63
2022/09/14 05:33:51;;;;;;;6.07;2.10;;;14.60;99.90;;;;;;5093672;28;20455;-64
2022/09/14 05:36:17;;;;;;;7.43;2.33;;;14.70;99.90;;;;;;5092416;28;21116;-64
2022/09/14 05:38:43;;;;;;;6.22;2.10;;;14.70;99.90;;;;;;5108585;28;20420;-64
2022/09/14 05:41:11;;;;;;;6.10;2.00;;;14.70;99.90;;;;;;5089659;28;20415;-64
2022/09/14 05:43:37;;;;;;;5.53;2.20;;;14.70;99.90;;;;;;5109339;28;20450;-64
2022/09/14 05:46:05;;;;;;;7.25;2.10;;;14.70;99.90;;;;;;5109643;28;20508;-64
2022/09/14 05:48:35;;;;;;;8.65;2.13;;;14.70;99.90;;;;;;5110395;28;20458;-64
2022/09/14 05:51:15;;;;;;;8.27;2.13;;;14.80;99.90;;;;;;5091744;28;20489;-64
2022/09/14 05:53:42;;;;;;;5.43;1.70;;;14.80;99.90;;;;;;5108159;28;20717;-63
2022/09/14 05:56:13;;;;;;;7.68;2.50;;;14.80;99.90;;;;;;5091790;28;20372;-64
2022/09/14 05:58:39;;;;;;;8.25;2.65;;;14.70;99.90;;;;;;5088639;28;20392;-64
2022/09/14 06:01:20;;;;;;;8.60;2.47;;;14.70;99.90;;;;;;5106671;28;20388;-63
2022/09/14 06:03:46;;;;;;;6.80;2.45;;;14.70;99.90;;;;;;5079989;28;20392;-64
2022/09/14 06:06:15;;;;;;;4.10;1.73;;;14.80;99.90;;;;;;5079592;28;20691;-63
2022/09/14 06:08:42;;;;;;;7.18;2.30;;;14.80;99.90;;;;;;5079724;28;20381;-64
2022/09/14 06:11:14;;;;;;;5.75;1.73;;;14.80;99.90;;;;;;5076236;28;20449;-64
2022/09/14 06:13:40;;;;;;;4.27;1.93;;;14.90;99.90;;;;;;5076129;28;20416;-63
2022/09/14 06:16:08;;;;;;;7.55;2.15;;;15.00;99.90;;;;;;5076862;28;20388;-64
2022/09/14 06:18:35;;;;;;;9.65;2.08;;;15.00;99.90;;;;;;5077054;28;20454;-64
2022/09/14 06:21:01;;;;;;;7.93;2.15;;;15.00;99.90;;;;;;5074648;28;20380;-64
2022/09/14 06:23:28;;;;;;;7.13;2.38;;;15.10;99.90;;;;;;5076312;28;20418;-64
2022/09/14 06:25:58;;;;;;;5.38;1.73;;;15.10;99.90;;;;;;5076884;28;20400;-64
2022/09/14 06:28:25;;;;;;;4.73;1.90;;;15.10;99.90;;;;;;5096545;28;20673;-63
2022/09/14 06:30:50;;;;;;;4.50;1.70;;;15.10;99.90;;;;;;5080226;28;20807;-64
2022/09/14 06:33:17;;;;;;;6.75;2.10;;;15.20;99.90;;;;;;5081991;28;20573;-64
2022/09/14 06:35:52;;;;;;;5.90;2.13;;;15.20;99.90;;;;;;5080290;28;20799;-64
2022/09/14 06:38:18;;;;;;;5.53;1.98;;;15.20;99.90;;;;;;5081415;28;20384;-64
2022/09/14 06:40:51;;;;;;;5.53;1.58;;;15.30;99.90;;;;;;5096114;28;20387;-64
2022/09/14 06:43:17;;;;;;;4.40;1.90;;;15.30;99.90;;;;;;5078008;28;20518;-63
2022/09/14 06:45:43;;;;;;;7.33;2.10;;;15.30;99.90;;;;;;5075600;28;20796;-64
2022/09/14 06:48:08;;;;;;;7.72;2.17;;;15.30;99.90;;;;;;5073409;28;20376;-63
2022/09/14 06:50:34;;;;;;;9.60;2.10;;;15.30;99.90;;;;;;5072588;28;20467;-63
2022/09/14 06:53:00;;;;;;;6.00;1.80;;;15.30;99.90;;;;;;5073924;28;20402;-63
2022/09/14 06:55:26;;;;;;;7.38;2.17;;;15.30;99.90;;;;;;5072829;28;20384;-63
2022/09/14 06:57:51;;;;;;;7.78;2.40;;;15.20;99.90;;;;;;5073525;28;20392;-63
2022/09/14 07:00:18;;;;;;;6.18;1.92;;;15.30;99.90;;;;;;5088749;28;20391;-63
2022/09/14 07:02:43;;;;;;;6.28;1.98;;;15.30;99.90;;;;;;5074061;28;20377;-63
2022/09/14 07:05:09;;;;;;;6.15;2.05;;;15.30;99.90;;;;;;5070723;28;20444;-63
2022/09/14 07:07:34;;;;;;;9.07;2.25;;;15.20;99.90;;;;;;5072426;28;20443;-63
2022/09/14 07:10:00;;;;;;;4.90;1.77;;;15.20;99.90;;;;;;5074464;28;20451;-63
2022/09/14 07:12:27;;;;;;;9.23;2.15;;;15.30;99.90;;;;;;5075743;28;20366;-63
2022/09/14 07:14:52;;;;;;;6.65;1.77;;;15.30;99.90;;;;;;5074531;28;20826;-63
2022/09/14 07:17:18;;;;;;;6.43;2.00;;;15.20;99.90;;;;;;5068069;28;20397;-63
2022/09/14 07:19:44;;;;;;;6.43;1.90;;;15.30;99.90;;;;;;5070701;28;20549;-63
2022/09/14 07:22:09;;;;;;;4.90;1.97;;;15.30;99.90;;;;;;5072815;28;20638;-63
2022/09/14 07:24:35;;;;;;;6.35;2.05;;;15.40;99.90;;;;;;5069911;28;20909;-63
2022/09/14 07:27:01;;;;;;;6.63;1.93;;;15.50;99.90;;;;;;5074293;28;20619;-63
2022/09/14 07:29:27;;;;;;;4.93;1.90;;;15.50;99.90;;;;;;5074651;28;20393;-63
2022/09/14 07:31:53;;;;;;;7.63;2.00;;;15.50;99.90;;;;;;5075367;28;20409;-63
2022/09/14 07:34:18;;;;;;;4.87;1.67;;;15.50;99.90;;;;;;5073286;28;20654;-64
2022/09/14 07:36:44;;;;;;;4.17;1.60;;;15.60;99.90;;;;;;5073521;28;20386;-64
2022/09/14 07:39:13;;;;;;;9.20;2.38;;;15.70;99.90;;;;;;5076563;28;20664;-64
2022/09/14 07:41:38;;;;;;;7.80;2.33;;;15.70;99.90;;;;;;5076888;28;20446;-63
2022/09/14 07:44:06;;;;;;;7.57;2.13;;;15.70;99.90;;;;;;5074228;28;20454;-64
2022/09/14 07:46:37;;;;;;;8.82;2.08;;;15.70;99.90;;;;;;5077238;28;20774;-64
2022/09/14 07:49:04;;;;;;;6.25;2.03;;;15.80;99.90;;;;;;5078118;28;20435;-63
2022/09/14 07:51:31;;;;;;;6.05;2.20;;;15.90;99.90;;;;;;5077029;28;20541;-63
2022/09/14 07:53:59;;;;;;;3.85;1.73;;;15.90;99.90;;;;;;5076160;28;20460;-64
2022/09/14 07:56:25;;;;;;;6.45;2.25;;;16.00;99.90;;;;;;5071631;28;20386;-63
2022/09/14 07:58:55;;;;;;;7.53;2.17;;;15.90;99.90;;;;;;5071133;28;20493;-63
2022/09/14 08:01:22;;;;;;;7.90;1.95;;;16.00;99.90;;;;;;5071516;28;20628;-63
2022/09/14 08:03:48;;;;;;;7.03;1.98;;;16.00;99.90;;;;;;5072214;28;20537;-63
2022/09/14 08:06:25;;;;;;;5.83;2.00;;;16.10;99.90;;;;;;5094339;28;20525;-63
2022/09/14 08:08:52;;;;;;;6.87;2.03;;;16.20;99.90;;;;;;5099710;28;20412;-64
2022/09/14 08:11:31;;;;;;;6.25;1.80;;;16.10;99.90;;;;;;5081441;28;20638;-63
2022/09/14 08:14:02;;;;;;;8.50;2.03;;;16.20;99.90;;;;;;5101707;28;20435;-64
2022/09/14 08:16:29;;;;;;;6.85;1.85;;;16.30;99.90;;;;;;5081973;28;20459;-63
2022/09/14 08:18:57;;;;;;;7.55;1.88;;;16.40;99.90;;;;;;5082788;28;20518;-64
2022/09/14 08:21:24;;;;;;;9.63;2.03;;;16.50;99.90;;;;;;5080275;28;20816;-63
2022/09/14 08:23:50;;;;;;;11.43;2.65;;;16.50;99.90;;;;;;5081123;28;20384;-63
2022/09/14 08:26:18;;;;;;;8.45;1.92;;;16.50;99.90;;;;;;5076243;28;20699;-63
2022/09/14 08:28:45;;;;;;;8.02;2.28;;;16.50;99.90;;;;;;5095429;28;20415;-63
2022/09/14 08:31:19;;;;;;;9.55;1.73;;;16.50;99.90;;;;;;5092964;28;20384;-64
2022/09/14 08:33:49;;;;;;;5.13;1.88;;;16.60;99.90;;;;;;5079054;28;20484;-63
2022/09/14 08:36:17;;;;;;;6.72;1.80;;;16.50;99.90;;;;;;5084311;28;20960;-63
2022/09/14 08:38:43;;;;;;;9.50;2.05;;;16.60;99.90;;;;;;5084059;28;20476;-64
2022/09/14 08:41:27;;;;;;;5.33;1.70;;;16.60;99.90;;;;;;5085578;28;20395;-64
2022/09/14 08:43:53;;;;;;;9.60;2.10;;;16.70;99.90;;;;;;5086469;28;20886;-63
2022/09/14 08:46:50;;;;;;;4.57;1.20;;;16.80;99.90;;;;;;5088833;28;20404;-64
2022/09/14 08:49:35;;;;;;;5.22;1.48;;;16.90;99.90;;;;;;5053996;28;20384;-64
2022/09/14 08:52:01;;;;;;;5.57;1.67;;;17.00;99.90;;;;;;5087848;28;20395;-63
2022/09/14 08:54:26;;;;;;;4.05;1.58;;;17.00;99.90;;;;;;5089506;28;20384;-64
2022/09/14 08:57:05;;;;;;;6.22;1.85;;;17.00;99.90;;;;;;5105298;28;20419;-64
2022/09/14 08:59:58;;;;;;;7.73;2.00;;;17.10;99.90;;;;;;5088187;28;20516;-64
2022/09/14 09:02:59;;;;;;;5.20;1.63;;;17.20;99.90;;;;;;5086083;28;20395;-64
2022/09/14 09:05:24;;;;;;;4.78;1.52;;;17.30;99.90;;;;;;5085406;28;21048;-63
2022/09/14 09:08:14;;;;;;;6.87;1.67;;;17.30;99.90;;;;;;5086532;28;20471;-63
2022/09/14 09:10:40;;;;;;;6.00;1.67;;;17.40;99.90;;;;;;5087821;28;20739;-63
2022/09/14 09:13:11;;;;;;;5.13;1.70;;;17.40;99.90;;;;;;5085072;28;20386;-64
2022/09/14 09:15:53;;;;;;;2.83;1.10;;;17.50;99.90;;;;;;5084276;28;20986;-63
2022/09/14 09:18:28;;;;;;;5.03;1.40;;;17.50;99.90;;;;;;5085079;28;20473;-64
2022/09/14 09:21:18;;;;;;;6.28;1.73;;;17.40;99.90;;;;;;5084674;28;20400;-63
2022/09/14 09:23:44;;;;;;;3.67;1.30;;;17.40;99.90;;;;;;5077789;28;20467;-63
2022/09/14 09:26:24;;;;;;;4.55;1.35;;;17.50;99.90;;;;;;5075402;28;20674;-63
2022/09/14 09:28:56;;;;;;;5.55;1.30;;;17.50;99.90;;;;;;5075728;28;20782;-63
2022/09/14 09:31:46;;;;;;;5.53;1.67;;;17.60;99.90;;;;;;5077392;28;20432;-63
2022/09/14 09:34:16;;;;;;;7.90;2.17;;;17.60;99.90;;;;;;5075974;28;20429;-64
2022/09/14 09:36:46;;;;;;;6.40;2.15;;;17.60;99.90;;;;;;5078737;28;20382;-64
2022/09/14 09:39:13;;;;;;;5.78;1.50;;;17.50;99.90;;;;;;5073817;28;20661;-64
2022/09/14 09:42:00;;;;;;;4.88;1.48;;;17.60;99.90;;;;;;5075539;28;20382;-64
2022/09/14 09:44:26;;;;;;;3.75;1.20;;;17.60;99.90;;;;;;5081363;28;20724;-64
2022/09/14 09:47:00;;;;;;;3.97;1.30;;;17.70;99.90;;;;;;5079187;28;20382;-64
2022/09/14 09:49:38;;;;;;;6.60;1.45;;;17.80;99.90;;;;;;5081352;28;20370;-64
2022/09/14 09:52:13;;;;;;;4.55;1.40;;;17.80;99.90;;;;;;5083024;28;20389;-64
2022/09/14 09:54:41;;;;;;;7.55;1.63;;;17.80;99.90;;;;;;5083494;28;20447;-58
2022/09/14 09:57:32;;;;;;;5.80;1.40;;;17.90;99.90;;;;;;5081877;28;20667;-56
2022/09/14 10:00:27;;;;;;;6.03;1.33;;;17.80;99.90;;;;;;5077177;28;20467;-56
2022/09/14 10:02:53;;;;;;;5.03;1.60;;;17.90;99.90;;;;;;5081657;28;20389;-57
2022/09/14 10:05:30;;;;;;;6.22;1.52;;;18.00;99.90;;;;;;5081426;28;20744;-58
2022/09/14 10:07:59;;;;;;;5.25;1.50;;;18.10;99.90;;;;;;5083253;28;20483;-56
2022/09/14 10:10:34;;;;;;;4.70;1.50;;;18.20;99.90;;;;;;5085056;28;20767;-57
2022/09/14 10:13:02;;;;;;;5.68;1.60;;;18.30;99.90;;;;;;5079027;28;20693;-65
2022/09/14 10:15:32;;;;;;;4.35;1.40;;;18.30;99.90;;;;;;5080886;28;20394;-64
2022/09/14 10:18:15;;;;;;;5.45;1.80;;;18.30;99.90;;;;;;5082403;28;20725;-64
2022/09/14 10:20:42;;;;;;;5.75;1.98;;;18.20;99.90;;;;;;5082771;28;20417;-64
2022/09/14 10:23:17;;;;;;;8.80;1.65;;;18.10;99.90;;;;;;5082232;28;20528;-64
2022/09/14 10:25:44;;;;;;;5.78;1.70;;;18.00;99.90;;;;;;5083880;28;20866;-64
2022/09/14 10:28:30;;;;;;;5.75;1.30;;;17.90;99.90;;;;;;5082834;28;20386;-62
2022/09/14 10:31:01;;;;;;;5.90;1.63;;;17.90;99.90;;;;;;5084299;28;20417;-63
2022/09/14 10:33:28;;;;;;;5.20;1.42;;;17.80;99.90;;;;;;5082339;28;20377;-64
2022/09/14 10:36:13;;;;;;;4.90;1.60;;;17.80;99.90;;;;;;5082788;28;20404;-64
2022/09/14 10:38:46;;;;;;;7.43;1.88;;;17.80;99.90;;;;;;5083296;28;20389;-63
2022/09/14 10:41:32;;;;;;;6.35;1.67;;;17.80;99.90;;;;;;5084160;28;20405;-63
2022/09/14 10:44:18;;;;;;;4.75;1.38;;;17.80;99.90;;;;;;5080528;28;20382;-63
2022/09/14 10:47:05;;;;;;;4.50;1.43;;;18.00;99.90;;;;;;5079523;28;20386;-64
2022/09/14 10:49:58;;;;;;;4.93;1.35;;;18.00;99.90;;;;;;5079663;28;20381;-64
2022/09/14 10:52:32;;;;;;;7.68;1.55;;;17.90;99.90;;;;;;5081012;28;20376;-63
2022/09/14 10:55:30;;;;;;;3.13;1.20;;;17.90;99.90;;;;;;5083282;28;20382;-63
2022/09/14 10:58:26;;;;;;;6.60;1.77;;;17.90;99.90;;;;;;5081114;28;20404;-64
2022/09/14 11:01:04;;;;;;;6.75;2.00;;;17.90;99.90;;;;;;5080684;28;20381;-64
2022/09/14 11:03:50;;;;;;;7.03;2.05;;;18.00;99.90;;;;;;5078660;28;20416;-63
2022/09/14 11:06:44;;;;;;;7.75;1.90;;;17.90;99.90;;;;;;5081460;28;21115;-63
2022/09/14 11:09:40;;;;;;;6.10;1.57;;;17.90;99.90;;;;;;5082414;28;20443;-63
2022/09/14 11:12:25;;;;;;;6.93;1.55;;;18.00;99.90;;;;;;5063627;28;20382;-63
2022/09/14 11:15:27;;;;;;;6.80;1.85;;;18.00;99.90;;;;;;5078058;28;20494;-64
2022/09/14 11:18:07;;;;;;;6.25;1.50;;;18.10;99.90;;;;;;5061870;28;20382;-64
2022/09/14 11:20:32;;;;;;;6.28;1.60;;;18.30;99.90;;;;;;5078773;28;20899;-64
2022/09/14 11:23:26;;;;;;;5.80;1.47;;;18.60;99.90;;;;;;5077922;28;21046;-64
2022/09/14 11:25:58;;;;;;;10.82;1.75;;;18.80;99.90;;;;;;5077125;28;20489;-64
2022/09/14 11:28:29;;;;;;;6.40;1.83;;;18.90;99.90;;;;;;5076468;28;21047;-64
2022/09/14 11:31:16;;;;;;;7.97;1.70;;;18.90;99.90;;;;;;5075523;28;20422;-64
2022/09/14 11:33:58;;;;;;;5.15;1.42;;;18.70;99.90;;;;;;5078603;28;20381;-64
2022/09/14 11:36:46;;;;;;;4.72;1.60;;;18.70;99.90;;;;;;5078928;28;20416;-64
2022/09/14 11:39:28;;;;;;;6.00;1.45;;;18.70;99.90;;;;;;5077888;28;20378;-64
2022/09/14 11:42:07;;;;;;;6.07;1.80;;;18.60;99.90;;;;;;5074093;28;20397;-64
2022/09/14 11:44:38;;;;;;;6.53;1.77;;;18.60;99.90;;;;;;5071851;28;20401;-63
2022/09/14 11:47:12;;;;;;;4.43;1.55;;;18.50;99.90;;;;;;5068832;28;20382;-64
2022/09/14 11:50:14;;;;;;;5.75;1.75;;;18.50;99.90;;;;;;5075032;28;20378;-63
2022/09/14 11:52:40;;;;;;;6.47;1.73;;;18.40;99.90;;;;;;5075041;28;20366;-63
2022/09/14 11:55:10;;;;;;;7.18;1.77;;;18.40;99.90;;;;;;5076898;28;20382;-63
2022/09/14 11:57:36;;;;;;;7.93;1.83;;;18.30;99.90;;;;;;5081416;28;20536;-63
2022/09/14 12:00:22;;;;;;;4.80;1.60;;;18.30;99.90;;;;;;5081362;28;20798;-63
2022/09/14 12:03:19;;;;;;;5.07;1.63;;;18.20;99.90;;;;;;5038733;28;20383;-64
2022/09/14 12:05:46;;;;;;;7.60;1.73;;;18.10;99.90;;;;;;5079864;28;20405;-64
2022/09/14 12:08:30;;;;;;;10.80;1.95;;;18.10;99.90;;;;;;5074750;28;20443;-63
2022/09/14 12:11:08;;;;;;;7.20;1.85;;;18.10;99.90;;;;;;5071267;28;20877;-63
2022/09/14 12:13:35;;;;;;;8.38;2.08;;;18.00;99.90;;;;;;5070976;28;20401;-63
2022/09/14 12:16:08;;;;;;;6.22;2.17;;;18.00;99.90;;;;;;5069664;28;20711;-63
2022/09/14 12:18:38;;;;;;;6.47;1.83;;;18.00;99.90;;;;;;5072641;28;20386;-63
2022/09/14 12:21:24;;;;;;;6.28;1.83;;;17.90;99.90;;;;;;5072886;28;20478;-64
2022/09/14 12:23:56;;;;;;;7.97;1.75;;;18.00;99.90;;;;;;5077210;28;20397;-62
2022/09/14 12:26:33;;;;;;;5.88;1.83;;;17.90;99.90;;;;;;5080101;28;20390;-64
2022/09/14 12:29:05;;;;;;;7.53;2.20;;;17.80;99.90;;;;;;5079187;28;20393;-63
2022/09/14 12:31:42;;;;;;;4.90;1.50;;;17.80;99.90;;;;;;5077109;28;20921;-63
2022/09/14 12:34:23;;;;;;;5.90;1.65;;;17.90;99.90;;;;;;5076673;28;20382;-63
2022/09/14 12:36:49;;;;;;;9.87;2.20;;;18.00;99.90;;;;;;5078118;28;20374;-63
2022/09/14 12:39:31;;;;;;;6.77;1.53;;;18.00;99.90;;;;;;5076812;28;20512;-63
2022/09/14 12:42:00;;;;;;;7.50;1.70;;;18.00;99.90;;;;;;5075408;28;21036;-63
2022/09/14 12:44:38;;;;;;;6.88;1.88;;;18.10;99.90;;;;;;5074698;28;20517;-64
2022/09/14 12:47:23;;;;;;;7.00;2.13;;;18.50;99.90;;;;;;5077144;28;20382;-64
2022/09/14 12:49:49;;;;;;;8.75;2.05;;;18.70;99.90;;;;;;5082027;28;20519;-64
2022/09/14 12:52:55;;;;;;;9.43;2.22;;;18.80;99.90;;;;;;5082511;28;20481;-63
2022/09/14 12:55:43;;;;;;;7.93;2.00;;;18.70;99.90;;;;;;5078080;28;20912;-64
2022/09/14 12:58:35;;;;;;;11.93;2.00;;;18.60;99.90;;;;;;5082533;28;20397;-64
2022/09/14 13:01:35;;;;;;;6.53;1.58;;;18.50;99.90;;;;;;5083357;28;20389;-64
2022/09/14 13:04:02;;;;;;;6.97;1.80;;;18.40;99.90;;;;;;5085836;28;20389;-64
2022/09/14 13:06:48;;;;;;;2.70;1.25;;;18.40;99.90;;;;;;5083541;28;20397;-64
2022/09/14 13:09:22;;;;;;;5.80;1.83;;;18.50;99.90;;;;;;5082424;28;20719;-64
2022/09/14 13:12:00;;;;;;;3.47;1.60;;;18.50;99.90;;;;;;5083370;28;20427;-64
2022/09/14 13:14:30;;;;;;;6.03;1.67;;;18.60;99.90;;;;;;5082703;28;20401;-65